sensor_id;sensor_type;location;lat;lon;timestamp;P1;durP1;ratioP1;P2;durP2;ratioP2
10687;SDS011;5392;42.688;23.298;2023-12-14T12:32:43;3.33;;;1.50;;
10687;SDS011;5392;42.688;23.298;2023-12-14T12:35:09;13.13;;;3.15;;
10687;SDS011;5392;42.688;23.298;2023-12-14T12:37:34;5.18;;;1.30;;
10687;SDS011;5392;42.688;23.298;2023-12-14T12:40:00;1.50;;;1.30;;
10687;SDS011;5392;42.688;23.298;2023-12-14T12:43:45;1.27;;;1.17;;
10687;SDS011;5392;42.688;23.298;2023-12-14T12:46:11;4.90;;;1.92;;
10687;SDS011;5392;42.688;23.298;2023-12-14T12:48:37;3.10;;;1.67;;
10687;SDS011;5392;42.688;23.298;2023-12-14T12:51:02;3.38;;;1.70;;
10687;SDS011;5392;42.688;23.298;2023-12-14T12:53:28;7.50;;;1.90;;
10687;SDS011;5392;42.688;23.298;2023-12-14T12:55:54;2.15;;;1.58;;
10687;SDS011;5392;42.688;23.298;2023-12-14T12:58:19;3.72;;;2.00;;
10687;SDS011;5392;42.688;23.298;2023-12-14T13:00:45;3.45;;;3.05;;
10687;SDS011;5392;42.688;23.298;2023-12-14T13:03:10;4.22;;;3.08;;
10687;SDS011;5392;42.688;23.298;2023-12-14T13:05:36;5.53;;;2.72;;
10687;SDS011;5392;42.688;23.298;2023-12-14T13:08:01;3.97;;;3.03;;
10687;SDS011;5392;42.688;23.298;2023-12-14T13:10:27;3.03;;;2.20;;
10687;SDS011;5392;42.688;23.298;2023-12-14T13:12:53;2.85;;;2.10;;
10687;SDS011;5392;42.688;23.298;2023-12-14T13:15:19;10.07;;;5.47;;
10687;SDS011;5392;42.688;23.298;2023-12-14T13:17:44;13.98;;;4.05;;
10687;SDS011;5392;42.688;23.298;2023-12-14T13:20:10;5.93;;;3.28;;
10687;SDS011;5392;42.688;23.298;2023-12-14T13:22:35;6.70;;;4.22;;
10687;SDS011;5392;42.688;23.298;2023-12-14T13:25:01;5.93;;;2.90;;
10687;SDS011;5392;42.688;23.298;2023-12-14T13:27:28;2.90;;;1.92;;
10687;SDS011;5392;42.688;23.298;2023-12-14T13:29:53;2.72;;;2.10;;
10687;SDS011;5392;42.688;23.298;2023-12-14T13:32:19;5.28;;;2.83;;
10687;SDS011;5392;42.688;23.298;2023-12-14T13:34:44;7.00;;;5.10;;
10687;SDS011;5392;42.688;23.298;2023-12-14T13:37:10;5.65;;;3.50;;
10687;SDS011;5392;42.688;23.298;2023-12-14T13:39:36;7.57;;;4.05;;
10687;SDS011;5392;42.688;23.298;2023-12-14T13:42:06;5.13;;;4.32;;
10687;SDS011;5392;42.688;23.298;2023-12-14T13:44:32;6.90;;;3.63;;
10687;SDS011;5392;42.688;23.298;2023-12-14T13:47:00;6.07;;;2.70;;
10687;SDS011;5392;42.688;23.298;2023-12-14T13:49:29;3.65;;;2.30;;
10687;SDS011;5392;42.688;23.298;2023-12-14T13:51:55;6.07;;;2.10;;
10687;SDS011;5392;42.688;23.298;2023-12-14T13:54:20;4.63;;;2.10;;
10687;SDS011;5392;42.688;23.298;2023-12-14T13:56:46;3.35;;;2.10;;
10687;SDS011;5392;42.688;23.298;2023-12-14T13:59:11;4.22;;;2.00;;
10687;SDS011;5392;42.688;23.298;2023-12-14T14:01:37;9.23;;;1.77;;
10687;SDS011;5392;42.688;23.298;2023-12-14T14:04:03;3.97;;;1.50;;
10687;SDS011;5392;42.688;23.298;2023-12-14T14:06:28;2.00;;;1.30;;
10687;SDS011;5392;42.688;23.298;2023-12-14T14:08:54;5.32;;;1.48;;
10687;SDS011;5392;42.688;23.298;2023-12-14T14:11:20;4.55;;;1.88;;
10687;SDS011;5392;42.688;23.298;2023-12-14T14:13:47;3.47;;;1.42;;
10687;SDS011;5392;42.688;23.298;2023-12-14T14:16:13;3.78;;;2.33;;
10687;SDS011;5392;42.688;23.298;2023-12-14T14:18:39;3.35;;;2.10;;
10687;SDS011;5392;42.688;23.298;2023-12-14T14:21:04;5.00;;;2.88;;
10687;SDS011;5392;42.688;23.298;2023-12-14T14:23:33;9.00;;;2.55;;
10687;SDS011;5392;42.688;23.298;2023-12-14T14:25:59;6.20;;;2.58;;
10687;SDS011;5392;42.688;23.298;2023-12-14T14:28:25;7.65;;;3.13;;
10687;SDS011;5392;42.688;23.298;2023-12-14T14:30:51;4.60;;;2.42;;
10687;SDS011;5392;42.688;23.298;2023-12-14T14:33:17;8.10;;;2.45;;
10687;SDS011;5392;42.688;23.298;2023-12-14T14:38:12;3.97;;;1.60;;
10687;SDS011;5392;42.688;23.298;2023-12-14T14:40:38;3.58;;;1.30;;
10687;SDS011;5392;42.688;23.298;2023-12-14T14:43:04;2.15;;;1.95;;
10687;SDS011;5392;42.688;23.298;2023-12-14T14:45:29;1.88;;;1.50;;
10687;SDS011;5392;42.688;23.298;2023-12-14T14:47:55;1.83;;;1.55;;
10687;SDS011;5392;42.688;23.298;2023-12-14T14:50:21;3.17;;;1.50;;
10687;SDS011;5392;42.688;23.298;2023-12-14T14:52:46;2.75;;;1.63;;
10687;SDS011;5392;42.688;23.298;2023-12-14T14:57:38;3.70;;;3.30;;
10687;SDS011;5392;42.688;23.298;2023-12-14T15:00:04;6.65;;;4.88;;
10687;SDS011;5392;42.688;23.298;2023-12-14T15:02:30;3.75;;;3.28;;
10687;SDS011;5392;42.688;23.298;2023-12-14T15:04:55;7.53;;;4.35;;
10687;SDS011;5392;42.688;23.298;2023-12-14T15:07:21;7.65;;;3.40;;
10687;SDS011;5392;42.688;23.298;2023-12-14T15:09:46;6.80;;;4.40;;
10687;SDS011;5392;42.688;23.298;2023-12-14T15:12:12;8.70;;;5.50;;
10687;SDS011;5392;42.688;23.298;2023-12-14T15:14:37;12.10;;;7.40;;
10687;SDS011;5392;42.688;23.298;2023-12-14T15:17:03;8.50;;;6.00;;
10687;SDS011;5392;42.688;23.298;2023-12-14T15:19:28;7.25;;;3.83;;
10687;SDS011;5392;42.688;23.298;2023-12-14T15:21:54;3.63;;;2.45;;
10687;SDS011;5392;42.688;23.298;2023-12-14T15:24:20;3.08;;;2.50;;
10687;SDS011;5392;42.688;23.298;2023-12-14T15:26:45;3.25;;;2.63;;
10687;SDS011;5392;42.688;23.298;2023-12-14T15:29:11;2.78;;;2.45;;
10687;SDS011;5392;42.688;23.298;2023-12-14T15:31:36;2.67;;;2.45;;
10687;SDS011;5392;42.688;23.298;2023-12-14T15:34:02;6.07;;;3.95;;
10687;SDS011;5392;42.688;23.298;2023-12-14T15:36:27;7.18;;;4.38;;
10687;SDS011;5392;42.688;23.298;2023-12-14T15:38:55;5.78;;;3.58;;
10687;SDS011;5392;42.688;23.298;2023-12-14T15:41:21;5.88;;;3.75;;
10687;SDS011;5392;42.688;23.298;2023-12-14T15:43:46;6.00;;;4.00;;
10687;SDS011;5392;42.688;23.298;2023-12-14T15:46:11;6.97;;;4.75;;
10687;SDS011;5392;42.688;23.298;2023-12-14T15:48:37;7.55;;;4.78;;
10687;SDS011;5392;42.688;23.298;2023-12-14T15:51:03;3.90;;;3.42;;
10687;SDS011;5392;42.688;23.298;2023-12-14T15:53:30;3.33;;;2.28;;
10687;SDS011;5392;42.688;23.298;2023-12-14T15:55:56;4.97;;;2.92;;
10687;SDS011;5392;42.688;23.298;2023-12-14T15:58:22;1.88;;;1.67;;
10687;SDS011;5392;42.688;23.298;2023-12-14T16:00:47;2.97;;;1.50;;
10687;SDS011;5392;42.688;23.298;2023-12-14T16:03:13;3.03;;;2.35;;
10687;SDS011;5392;42.688;23.298;2023-12-14T16:05:38;3.28;;;1.58;;
10687;SDS011;5392;42.688;23.298;2023-12-14T16:08:04;2.08;;;1.25;;
10687;SDS011;5392;42.688;23.298;2023-12-14T16:10:30;3.60;;;2.05;;
10687;SDS011;5392;42.688;23.298;2023-12-14T16:12:56;10.20;;;5.28;;
10687;SDS011;5392;42.688;23.298;2023-12-14T16:15:21;3.60;;;2.30;;
10687;SDS011;5392;42.688;23.298;2023-12-14T16:17:48;3.55;;;2.60;;
10687;SDS011;5392;42.688;23.298;2023-12-14T16:20:14;1.75;;;1.65;;
10687;SDS011;5392;42.688;23.298;2023-12-14T16:22:41;2.40;;;2.13;;
10687;SDS011;5392;42.688;23.298;2023-12-14T16:25:07;3.22;;;2.20;;
10687;SDS011;5392;42.688;23.298;2023-12-14T16:27:34;3.85;;;2.50;;
10687;SDS011;5392;42.688;23.298;2023-12-14T16:30:00;4.07;;;2.53;;
10687;SDS011;5392;42.688;23.298;2023-12-14T16:32:26;7.78;;;3.88;;
10687;SDS011;5392;42.688;23.298;2023-12-14T16:34:52;7.88;;;3.97;;
10687;SDS011;5392;42.688;23.298;2023-12-14T16:37:18;3.83;;;3.47;;
10687;SDS011;5392;42.688;23.298;2023-12-14T16:39:44;5.65;;;3.40;;
10687;SDS011;5392;42.688;23.298;2023-12-14T16:42:10;5.63;;;3.78;;
10687;SDS011;5392;42.688;23.298;2023-12-14T16:44:35;5.78;;;3.65;;
10687;SDS011;5392;42.688;23.298;2023-12-14T16:47:06;6.43;;;4.00;;
10687;SDS011;5392;42.688;23.298;2023-12-14T16:49:35;7.50;;;3.70;;
10687;SDS011;5392;42.688;23.298;2023-12-14T16:52:07;7.95;;;4.95;;
10687;SDS011;5392;42.688;23.298;2023-12-14T16:54:33;4.55;;;3.10;;
10687;SDS011;5392;42.688;23.298;2023-12-14T16:56:59;5.00;;;3.85;;
10687;SDS011;5392;42.688;23.298;2023-12-14T16:59:27;5.38;;;3.58;;
10687;SDS011;5392;42.688;23.298;2023-12-14T17:01:53;5.00;;;3.85;;
10687;SDS011;5392;42.688;23.298;2023-12-14T17:04:18;7.40;;;3.92;;
10687;SDS011;5392;42.688;23.298;2023-12-14T17:06:44;6.75;;;4.20;;
10687;SDS011;5392;42.688;23.298;2023-12-14T17:09:10;6.85;;;4.80;;
10687;SDS011;5392;42.688;23.298;2023-12-14T17:11:35;7.47;;;4.95;;
10687;SDS011;5392;42.688;23.298;2023-12-14T17:14:01;10.15;;;5.20;;
10687;SDS011;5392;42.688;23.298;2023-12-14T17:16:26;7.93;;;5.15;;
10687;SDS011;5392;42.688;23.298;2023-12-14T17:18:52;8.75;;;5.80;;
10687;SDS011;5392;42.688;23.298;2023-12-14T17:21:18;12.30;;;6.80;;
10687;SDS011;5392;42.688;23.298;2023-12-14T17:23:47;13.38;;;8.10;;
10687;SDS011;5392;42.688;23.298;2023-12-14T17:26:13;11.80;;;7.20;;
10687;SDS011;5392;42.688;23.298;2023-12-14T17:31:13;8.73;;;5.43;;
10687;SDS011;5392;42.688;23.298;2023-12-14T17:33:39;8.30;;;5.97;;
10687;SDS011;5392;42.688;23.298;2023-12-14T17:36:05;10.05;;;6.80;;
10687;SDS011;5392;42.688;23.298;2023-12-14T17:38:30;12.23;;;7.15;;
10687;SDS011;5392;42.688;23.298;2023-12-14T17:40:56;10.10;;;7.10;;
10687;SDS011;5392;42.688;23.298;2023-12-14T17:43:23;11.07;;;7.20;;
10687;SDS011;5392;42.688;23.298;2023-12-14T17:45:49;12.25;;;7.82;;
10687;SDS011;5392;42.688;23.298;2023-12-14T17:48:15;11.43;;;8.23;;
10687;SDS011;5392;42.688;23.298;2023-12-14T17:50:40;10.10;;;6.68;;
10687;SDS011;5392;42.688;23.298;2023-12-14T17:53:06;9.50;;;6.45;;
10687;SDS011;5392;42.688;23.298;2023-12-14T17:55:31;9.70;;;6.18;;
10687;SDS011;5392;42.688;23.298;2023-12-14T17:57:57;8.98;;;5.00;;
10687;SDS011;5392;42.688;23.298;2023-12-14T18:00:22;7.95;;;4.40;;
10687;SDS011;5392;42.688;23.298;2023-12-14T18:02:48;8.70;;;5.20;;
10687;SDS011;5392;42.688;23.298;2023-12-14T18:05:14;11.70;;;7.80;;
10687;SDS011;5392;42.688;23.298;2023-12-14T18:07:39;15.25;;;8.55;;
10687;SDS011;5392;42.688;23.298;2023-12-14T18:10:05;15.23;;;9.90;;
10687;SDS011;5392;42.688;23.298;2023-12-14T18:12:33;13.77;;;9.68;;
10687;SDS011;5392;42.688;23.298;2023-12-14T18:14:59;15.00;;;8.48;;
10687;SDS011;5392;42.688;23.298;2023-12-14T18:17:24;11.40;;;7.65;;
10687;SDS011;5392;42.688;23.298;2023-12-14T18:19:50;7.70;;;6.10;;
10687;SDS011;5392;42.688;23.298;2023-12-14T18:22:20;8.48;;;5.82;;
10687;SDS011;5392;42.688;23.298;2023-12-14T18:24:46;7.72;;;5.25;;
10687;SDS011;5392;42.688;23.298;2023-12-14T18:27:11;8.43;;;5.82;;
10687;SDS011;5392;42.688;23.298;2023-12-14T18:29:37;8.00;;;5.25;;
10687;SDS011;5392;42.688;23.298;2023-12-14T18:32:03;8.35;;;5.40;;
10687;SDS011;5392;42.688;23.298;2023-12-14T18:34:28;6.25;;;4.03;;
10687;SDS011;5392;42.688;23.298;2023-12-14T18:36:54;5.53;;;3.58;;
10687;SDS011;5392;42.688;23.298;2023-12-14T18:39:19;4.75;;;3.40;;
10687;SDS011;5392;42.688;23.298;2023-12-14T18:41:45;4.65;;;3.63;;
10687;SDS011;5392;42.688;23.298;2023-12-14T18:44:10;5.00;;;3.92;;
10687;SDS011;5392;42.688;23.298;2023-12-14T18:46:36;5.97;;;4.15;;
10687;SDS011;5392;42.688;23.298;2023-12-14T18:49:01;6.30;;;4.05;;
10687;SDS011;5392;42.688;23.298;2023-12-14T18:51:27;6.70;;;4.30;;
10687;SDS011;5392;42.688;23.298;2023-12-14T18:53:52;8.88;;;4.43;;
10687;SDS011;5392;42.688;23.298;2023-12-14T18:56:18;9.85;;;5.75;;
10687;SDS011;5392;42.688;23.298;2023-12-14T18:58:44;10.98;;;5.70;;
10687;SDS011;5392;42.688;23.298;2023-12-14T19:01:11;9.10;;;6.03;;
10687;SDS011;5392;42.688;23.298;2023-12-14T19:03:36;7.38;;;4.80;;
10687;SDS011;5392;42.688;23.298;2023-12-14T19:06:06;9.68;;;5.82;;
10687;SDS011;5392;42.688;23.298;2023-12-14T19:08:34;7.10;;;5.72;;
10687;SDS011;5392;42.688;23.298;2023-12-14T19:11:00;10.95;;;6.22;;
10687;SDS011;5392;42.688;23.298;2023-12-14T19:13:26;13.77;;;7.40;;
10687;SDS011;5392;42.688;23.298;2023-12-14T19:15:51;7.22;;;4.78;;
10687;SDS011;5392;42.688;23.298;2023-12-14T19:18:17;8.43;;;4.85;;
10687;SDS011;5392;42.688;23.298;2023-12-14T19:20:42;3.20;;;2.90;;
10687;SDS011;5392;42.688;23.298;2023-12-14T19:23:08;6.60;;;4.22;;
10687;SDS011;5392;42.688;23.298;2023-12-14T19:25:33;3.90;;;2.70;;
10687;SDS011;5392;42.688;23.298;2023-12-14T19:27:59;3.88;;;1.90;;
10687;SDS011;5392;42.688;23.298;2023-12-14T19:30:24;3.55;;;1.92;;
10687;SDS011;5392;42.688;23.298;2023-12-14T19:32:49;4.13;;;2.78;;
10687;SDS011;5392;42.688;23.298;2023-12-14T19:35:17;4.63;;;2.50;;
10687;SDS011;5392;42.688;23.298;2023-12-14T19:37:42;4.70;;;2.30;;
10687;SDS011;5392;42.688;23.298;2023-12-14T19:40:10;4.95;;;2.60;;
10687;SDS011;5392;42.688;23.298;2023-12-14T19:42:37;2.72;;;2.22;;
10687;SDS011;5392;42.688;23.298;2023-12-14T19:45:02;2.60;;;1.92;;
10687;SDS011;5392;42.688;23.298;2023-12-14T19:47:28;2.83;;;1.50;;
10687;SDS011;5392;42.688;23.298;2023-12-14T19:49:53;2.45;;;1.50;;
10687;SDS011;5392;42.688;23.298;2023-12-14T19:52:24;2.20;;;1.60;;
10687;SDS011;5392;42.688;23.298;2023-12-14T19:54:49;1.50;;;1.40;;
10687;SDS011;5392;42.688;23.298;2023-12-14T19:57:15;2.38;;;2.05;;
10687;SDS011;5392;42.688;23.298;2023-12-14T19:59:40;1.98;;;1.88;;
10687;SDS011;5392;42.688;23.298;2023-12-14T20:04:32;1.50;;;1.40;;
10687;SDS011;5392;42.688;23.298;2023-12-14T20:06:57;2.00;;;1.80;;
10687;SDS011;5392;42.688;23.298;2023-12-14T20:09:23;2.47;;;2.03;;
10687;SDS011;5392;42.688;23.298;2023-12-14T20:11:49;2.90;;;1.95;;
10687;SDS011;5392;42.688;23.298;2023-12-14T20:14:15;3.63;;;1.85;;
10687;SDS011;5392;42.688;23.298;2023-12-14T20:16:47;3.80;;;2.08;;
10687;SDS011;5392;42.688;23.298;2023-12-14T20:19:13;2.00;;;1.70;;
10687;SDS011;5392;42.688;23.298;2023-12-14T20:21:39;1.73;;;1.55;;
10687;SDS011;5392;42.688;23.298;2023-12-14T20:24:05;1.67;;;1.58;;
10687;SDS011;5392;42.688;23.298;2023-12-14T20:26:31;1.50;;;1.30;;
10687;SDS011;5392;42.688;23.298;2023-12-14T20:28:57;1.92;;;1.45;;
10687;SDS011;5392;42.688;23.298;2023-12-14T20:31:23;1.67;;;1.58;;
10687;SDS011;5392;42.688;23.298;2023-12-14T20:33:49;3.80;;;1.80;;
10687;SDS011;5392;42.688;23.298;2023-12-14T20:36:14;2.78;;;2.20;;
10687;SDS011;5392;42.688;23.298;2023-12-14T20:38:40;2.10;;;1.90;;
10687;SDS011;5392;42.688;23.298;2023-12-14T20:41:06;4.65;;;2.20;;
10687;SDS011;5392;42.688;23.298;2023-12-14T20:43:32;3.63;;;2.08;;
10687;SDS011;5392;42.688;23.298;2023-12-14T20:45:57;2.85;;;2.10;;
10687;SDS011;5392;42.688;23.298;2023-12-14T20:48:23;2.88;;;1.98;;
10687;SDS011;5392;42.688;23.298;2023-12-14T20:50:49;2.58;;;2.35;;
10687;SDS011;5392;42.688;23.298;2023-12-14T20:53:15;2.75;;;2.22;;
10687;SDS011;5392;42.688;23.298;2023-12-14T20:55:41;3.40;;;2.15;;
10687;SDS011;5392;42.688;23.298;2023-12-14T20:58:06;3.38;;;2.22;;
10687;SDS011;5392;42.688;23.298;2023-12-14T21:00:32;2.67;;;2.25;;
10687;SDS011;5392;42.688;23.298;2023-12-14T21:02:59;3.10;;;2.53;;
10687;SDS011;5392;42.688;23.298;2023-12-14T21:05:24;3.38;;;2.40;;
10687;SDS011;5392;42.688;23.298;2023-12-14T21:07:50;2.30;;;2.10;;
10687;SDS011;5392;42.688;23.298;2023-12-14T21:10:16;2.38;;;1.85;;
10687;SDS011;5392;42.688;23.298;2023-12-14T21:12:41;2.92;;;2.15;;
10687;SDS011;5392;42.688;23.298;2023-12-14T21:15:07;2.55;;;2.05;;
10687;SDS011;5392;42.688;23.298;2023-12-14T21:17:34;3.80;;;1.85;;
10687;SDS011;5392;42.688;23.298;2023-12-14T21:20:00;2.38;;;2.00;;
10687;SDS011;5392;42.688;23.298;2023-12-14T21:22:26;1.67;;;1.58;;
10687;SDS011;5392;42.688;23.298;2023-12-14T21:24:51;1.73;;;1.63;;
10687;SDS011;5392;42.688;23.298;2023-12-14T21:27:24;2.65;;;1.90;;
10687;SDS011;5392;42.688;23.298;2023-12-14T21:30:10;2.78;;;2.15;;
10687;SDS011;5392;42.688;23.298;2023-12-14T21:32:40;2.20;;;1.92;;
10687;SDS011;5392;42.688;23.298;2023-12-14T21:35:07;3.10;;;2.30;;
10687;SDS011;5392;42.688;23.298;2023-12-14T21:37:32;4.28;;;1.65;;
10687;SDS011;5392;42.688;23.298;2023-12-14T21:39:58;2.90;;;2.08;;
10687;SDS011;5392;42.688;23.298;2023-12-14T21:42:24;2.03;;;1.45;;
10687;SDS011;5392;42.688;23.298;2023-12-14T21:44:49;2.40;;;1.55;;
10687;SDS011;5392;42.688;23.298;2023-12-14T21:47:15;3.30;;;2.30;;
10687;SDS011;5392;42.688;23.298;2023-12-14T21:49:40;2.10;;;1.85;;
10687;SDS011;5392;42.688;23.298;2023-12-14T21:52:06;2.22;;;1.60;;
10687;SDS011;5392;42.688;23.298;2023-12-14T21:54:31;2.15;;;1.80;;
10687;SDS011;5392;42.688;23.298;2023-12-14T21:56:57;1.88;;;1.48;;
10687;SDS011;5392;42.688;23.298;2023-12-14T21:59:22;2.00;;;1.65;;
10687;SDS011;5392;42.688;23.298;2023-12-14T22:01:48;1.90;;;1.42;;
10687;SDS011;5392;42.688;23.298;2023-12-14T22:04:13;1.80;;;1.20;;
10687;SDS011;5392;42.688;23.298;2023-12-14T22:06:39;1.52;;;1.00;;
10687;SDS011;5392;42.688;23.298;2023-12-14T22:09:04;0.73;;;0.73;;
10687;SDS011;5392;42.688;23.298;2023-12-14T22:11:30;1.42;;;0.82;;
10687;SDS011;5392;42.688;23.298;2023-12-14T22:13:55;0.82;;;0.82;;
10687;SDS011;5392;42.688;23.298;2023-12-14T22:16:21;1.42;;;0.85;;
10687;SDS011;5392;42.688;23.298;2023-12-14T22:18:46;1.50;;;1.00;;
10687;SDS011;5392;42.688;23.298;2023-12-14T22:21:12;1.20;;;1.10;;
10687;SDS011;5392;42.688;23.298;2023-12-14T22:23:37;1.15;;;1.00;;
10687;SDS011;5392;42.688;23.298;2023-12-14T22:26:03;0.77;;;0.77;;
10687;SDS011;5392;42.688;23.298;2023-12-14T22:28:29;1.10;;;1.00;;
10687;SDS011;5392;42.688;23.298;2023-12-14T22:30:54;1.10;;;1.00;;
10687;SDS011;5392;42.688;23.298;2023-12-14T22:33:20;1.70;;;0.98;;
10687;SDS011;5392;42.688;23.298;2023-12-14T22:35:45;0.70;;;0.70;;
10687;SDS011;5392;42.688;23.298;2023-12-14T22:38:11;0.88;;;0.85;;
10687;SDS011;5392;42.688;23.298;2023-12-14T22:40:36;2.58;;;0.95;;
10687;SDS011;5392;42.688;23.298;2023-12-14T22:43:02;0.52;;;0.52;;
10687;SDS011;5392;42.688;23.298;2023-12-14T22:45:27;0.65;;;0.60;;
10687;SDS011;5392;42.688;23.298;2023-12-14T22:47:55;0.55;;;0.50;;
10687;SDS011;5392;42.688;23.298;2023-12-14T22:50:20;0.82;;;0.80;;
10687;SDS011;5392;42.688;23.298;2023-12-14T22:52:46;0.60;;;0.60;;
10687;SDS011;5392;42.688;23.298;2023-12-14T22:55:11;0.93;;;0.80;;
10687;SDS011;5392;42.688;23.298;2023-12-14T22:57:39;1.10;;;1.00;;
10687;SDS011;5392;42.688;23.298;2023-12-14T23:00:05;1.42;;;1.25;;
10687;SDS011;5392;42.688;23.298;2023-12-14T23:02:36;0.80;;;0.80;;
10687;SDS011;5392;42.688;23.298;2023-12-14T23:05:03;0.60;;;0.60;;
10687;SDS011;5392;42.688;23.298;2023-12-14T23:07:29;0.75;;;0.75;;
10687;SDS011;5392;42.688;23.298;2023-12-14T23:09:54;0.60;;;0.60;;
10687;SDS011;5392;42.688;23.298;2023-12-14T23:12:20;1.45;;;0.93;;
10687;SDS011;5392;42.688;23.298;2023-12-14T23:14:45;0.90;;;0.63;;
10687;SDS011;5392;42.688;23.298;2023-12-14T23:17:12;1.25;;;0.70;;
10687;SDS011;5392;42.688;23.298;2023-12-14T23:19:37;0.68;;;0.68;;
10687;SDS011;5392;42.688;23.298;2023-12-14T23:22:03;1.00;;;0.90;;
10687;SDS011;5392;42.688;23.298;2023-12-14T23:24:29;1.08;;;1.08;;
10687;SDS011;5392;42.688;23.298;2023-12-14T23:26:54;0.80;;;0.80;;
10687;SDS011;5392;42.688;23.298;2023-12-14T23:29:20;0.82;;;0.82;;
10687;SDS011;5392;42.688;23.298;2023-12-14T23:31:45;1.10;;;1.00;;
10687;SDS011;5392;42.688;23.298;2023-12-14T23:34:11;0.77;;;0.77;;
10687;SDS011;5392;42.688;23.298;2023-12-14T23:36:36;0.73;;;0.63;;
10687;SDS011;5392;42.688;23.298;2023-12-14T23:39:02;0.68;;;0.68;;
10687;SDS011;5392;42.688;23.298;2023-12-14T23:41:27;0.80;;;0.80;;
10687;SDS011;5392;42.688;23.298;2023-12-14T23:43:53;0.70;;;0.70;;
10687;SDS011;5392;42.688;23.298;2023-12-14T23:46:20;2.35;;;0.98;;
10687;SDS011;5392;42.688;23.298;2023-12-14T23:48:46;1.27;;;0.68;;
10687;SDS011;5392;42.688;23.298;2023-12-14T23:51:13;0.80;;;0.80;;
10687;SDS011;5392;42.688;23.298;2023-12-14T23:53:39;0.90;;;0.90;;
10687;SDS011;5392;42.688;23.298;2023-12-14T23:56:04;0.82;;;0.82;;
10687;SDS011;5392;42.688;23.298;2023-12-14T23:58:31;1.05;;;0.60;;
